sensor_id;sensor_type;location;lat;lon;timestamp;P1;durP1;ratioP1;P2;durP2;ratioP2
69226;SDS011;56334;52.398;7.552;2023-02-19T00:01:34;26.63;;;10.45;;
69226;SDS011;56334;52.398;7.552;2023-02-19T00:04:01;27.35;;;9.95;;
69226;SDS011;56334;52.398;7.552;2023-02-19T00:06:29;28.58;;;10.98;;
69226;SDS011;56334;52.398;7.552;2023-02-19T00:08:56;23.52;;;9.18;;
69226;SDS011;56334;52.398;7.552;2023-02-19T00:11:23;28.50;;;10.68;;
69226;SDS011;56334;52.398;7.552;2023-02-19T00:13:51;27.83;;;10.10;;
69226;SDS011;56334;52.398;7.552;2023-02-19T00:16:21;26.35;;;9.32;;
69226;SDS011;56334;52.398;7.552;2023-02-19T00:18:48;19.10;;;7.82;;
69226;SDS011;56334;52.398;7.552;2023-02-19T00:21:16;27.33;;;9.93;;
69226;SDS011;56334;52.398;7.552;2023-02-19T00:23:42;24.50;;;9.32;;
69226;SDS011;56334;52.398;7.552;2023-02-19T00:26:09;24.45;;;8.93;;
69226;SDS011;56334;52.398;7.552;2023-02-19T00:28:36;25.13;;;9.35;;
69226;SDS011;56334;52.398;7.552;2023-02-19T00:31:05;21.30;;;8.05;;
69226;SDS011;56334;52.398;7.552;2023-02-19T00:33:31;18.52;;;7.22;;
69226;SDS011;56334;52.398;7.552;2023-02-19T00:35:58;18.05;;;6.22;;
69226;SDS011;56334;52.398;7.552;2023-02-19T00:38:24;18.88;;;6.60;;
69226;SDS011;56334;52.398;7.552;2023-02-19T00:40:50;17.23;;;6.45;;
69226;SDS011;56334;52.398;7.552;2023-02-19T00:43:16;16.75;;;5.47;;
69226;SDS011;56334;52.398;7.552;2023-02-19T00:45:42;13.52;;;4.63;;
69226;SDS011;56334;52.398;7.552;2023-02-19T00:48:09;16.92;;;5.93;;
69226;SDS011;56334;52.398;7.552;2023-02-19T00:50:35;14.13;;;5.47;;
69226;SDS011;56334;52.398;7.552;2023-02-19T00:53:01;15.73;;;5.47;;
69226;SDS011;56334;52.398;7.552;2023-02-19T00:55:27;19.08;;;7.07;;
69226;SDS011;56334;52.398;7.552;2023-02-19T00:57:53;16.60;;;6.05;;
69226;SDS011;56334;52.398;7.552;2023-02-19T01:00:19;20.92;;;7.00;;
69226;SDS011;56334;52.398;7.552;2023-02-19T01:02:45;20.48;;;7.28;;
69226;SDS011;56334;52.398;7.552;2023-02-19T01:05:11;17.83;;;6.22;;
69226;SDS011;56334;52.398;7.552;2023-02-19T01:07:37;17.60;;;6.57;;
69226;SDS011;56334;52.398;7.552;2023-02-19T01:10:03;18.48;;;7.13;;
69226;SDS011;56334;52.398;7.552;2023-02-19T01:12:29;19.92;;;7.28;;
69226;SDS011;56334;52.398;7.552;2023-02-19T01:14:56;20.30;;;6.93;;
69226;SDS011;56334;52.398;7.552;2023-02-19T01:17:33;18.25;;;5.35;;
69226;SDS011;56334;52.398;7.552;2023-02-19T01:20:04;18.10;;;6.97;;
69226;SDS011;56334;52.398;7.552;2023-02-19T01:22:32;20.88;;;8.02;;
69226;SDS011;56334;52.398;7.552;2023-02-19T01:24:58;18.08;;;6.50;;
69226;SDS011;56334;52.398;7.552;2023-02-19T01:27:24;18.77;;;6.68;;
69226;SDS011;56334;52.398;7.552;2023-02-19T01:29:51;19.63;;;7.10;;
69226;SDS011;56334;52.398;7.552;2023-02-19T01:32:17;19.55;;;6.95;;
69226;SDS011;56334;52.398;7.552;2023-02-19T01:34:43;20.10;;;7.10;;
69226;SDS011;56334;52.398;7.552;2023-02-19T01:37:09;21.73;;;7.90;;
69226;SDS011;56334;52.398;7.552;2023-02-19T01:39:36;15.18;;;5.97;;
69226;SDS011;56334;52.398;7.552;2023-02-19T01:42:03;20.77;;;7.75;;
69226;SDS011;56334;52.398;7.552;2023-02-19T01:46:56;25.90;;;8.70;;
69226;SDS011;56334;52.398;7.552;2023-02-19T01:49:30;29.65;;;9.52;;
69226;SDS011;56334;52.398;7.552;2023-02-19T01:54:24;26.83;;;8.45;;
69226;SDS011;56334;52.398;7.552;2023-02-19T01:56:51;23.63;;;10.13;;
69226;SDS011;56334;52.398;7.552;2023-02-19T01:59:19;21.17;;;7.38;;
69226;SDS011;56334;52.398;7.552;2023-02-19T02:01:45;22.60;;;9.45;;
69226;SDS011;56334;52.398;7.552;2023-02-19T02:04:12;27.25;;;9.73;;
69226;SDS011;56334;52.398;7.552;2023-02-19T02:06:42;25.90;;;9.10;;
69226;SDS011;56334;52.398;7.552;2023-02-19T02:09:09;29.95;;;10.43;;
69226;SDS011;56334;52.398;7.552;2023-02-19T02:11:54;24.83;;;10.30;;
69226;SDS011;56334;52.398;7.552;2023-02-19T02:14:21;30.15;;;10.77;;
69226;SDS011;56334;52.398;7.552;2023-02-19T02:22:17;29.45;;;10.15;;
69226;SDS011;56334;52.398;7.552;2023-02-19T02:35:38;25.33;;;8.30;;
69226;SDS011;56334;52.398;7.552;2023-02-19T02:38:06;24.55;;;10.43;;
69226;SDS011;56334;52.398;7.552;2023-02-19T02:40:34;28.45;;;10.30;;
69226;SDS011;56334;52.398;7.552;2023-02-19T02:43:00;27.73;;;9.68;;
69226;SDS011;56334;52.398;7.552;2023-02-19T02:45:27;29.38;;;10.85;;
69226;SDS011;56334;52.398;7.552;2023-02-19T02:48:47;27.27;;;9.95;;
69226;SDS011;56334;52.398;7.552;2023-02-19T02:50:51;24.42;;;8.80;;
69226;SDS011;56334;52.398;7.552;2023-02-19T02:53:20;28.13;;;10.13;;
69226;SDS011;56334;52.398;7.552;2023-02-19T02:56:06;24.92;;;9.90;;
69226;SDS011;56334;52.398;7.552;2023-02-19T02:58:33;27.10;;;10.05;;
69226;SDS011;56334;52.398;7.552;2023-02-19T03:01:45;23.38;;;9.07;;
69226;SDS011;56334;52.398;7.552;2023-02-19T03:04:06;27.05;;;9.48;;
69226;SDS011;56334;52.398;7.552;2023-02-19T03:06:33;24.13;;;8.48;;
69226;SDS011;56334;52.398;7.552;2023-02-19T03:11:26;26.02;;;9.73;;
69226;SDS011;56334;52.398;7.552;2023-02-19T03:14:14;24.05;;;9.85;;
69226;SDS011;56334;52.398;7.552;2023-02-19T03:17:01;23.55;;;8.65;;
69226;SDS011;56334;52.398;7.552;2023-02-19T03:19:50;20.33;;;8.18;;
69226;SDS011;56334;52.398;7.552;2023-02-19T03:22:24;27.48;;;9.40;;
69226;SDS011;56334;52.398;7.552;2023-02-19T03:24:53;23.02;;;8.93;;
69226;SDS011;56334;52.398;7.552;2023-02-19T03:27:41;23.23;;;7.00;;
69226;SDS011;56334;52.398;7.552;2023-02-19T03:30:10;23.88;;;8.10;;
69226;SDS011;56334;52.398;7.552;2023-02-19T03:32:39;23.00;;;8.80;;
69226;SDS011;56334;52.398;7.552;2023-02-19T03:35:11;25.00;;;8.43;;
69226;SDS011;56334;52.398;7.552;2023-02-19T03:37:40;23.75;;;8.95;;
69226;SDS011;56334;52.398;7.552;2023-02-19T03:40:09;22.77;;;8.43;;
69226;SDS011;56334;52.398;7.552;2023-02-19T03:42:38;17.33;;;6.63;;
69226;SDS011;56334;52.398;7.552;2023-02-19T03:47:48;20.48;;;6.43;;
69226;SDS011;56334;52.398;7.552;2023-02-19T03:50:18;24.55;;;7.93;;
69226;SDS011;56334;52.398;7.552;2023-02-19T04:00:31;18.05;;;6.03;;
69226;SDS011;56334;52.398;7.552;2023-02-19T04:03:20;18.55;;;6.35;;
69226;SDS011;56334;52.398;7.552;2023-02-19T04:05:47;15.85;;;5.68;;
69226;SDS011;56334;52.398;7.552;2023-02-19T04:08:16;19.13;;;5.75;;
69226;SDS011;56334;52.398;7.552;2023-02-19T04:10:44;13.35;;;4.63;;
69226;SDS011;56334;52.398;7.552;2023-02-19T04:13:53;14.77;;;4.95;;
69226;SDS011;56334;52.398;7.552;2023-02-19T04:16:01;11.75;;;5.05;;
69226;SDS011;56334;52.398;7.552;2023-02-19T04:18:30;12.02;;;3.85;;
69226;SDS011;56334;52.398;7.552;2023-02-19T04:20:56;11.40;;;4.22;;
69226;SDS011;56334;52.398;7.552;2023-02-19T04:23:25;14.43;;;4.53;;
69226;SDS011;56334;52.398;7.552;2023-02-19T04:25:54;11.77;;;4.13;;
69226;SDS011;56334;52.398;7.552;2023-02-19T04:28:20;11.63;;;4.22;;
69226;SDS011;56334;52.398;7.552;2023-02-19T04:30:46;10.63;;;3.63;;
69226;SDS011;56334;52.398;7.552;2023-02-19T04:33:12;12.63;;;4.10;;
69226;SDS011;56334;52.398;7.552;2023-02-19T04:35:38;9.98;;;3.47;;
69226;SDS011;56334;52.398;7.552;2023-02-19T04:38:05;12.57;;;3.90;;
69226;SDS011;56334;52.398;7.552;2023-02-19T04:40:31;9.52;;;3.30;;
69226;SDS011;56334;52.398;7.552;2023-02-19T04:42:57;11.00;;;4.15;;
69226;SDS011;56334;52.398;7.552;2023-02-19T04:45:23;15.15;;;4.50;;
69226;SDS011;56334;52.398;7.552;2023-02-19T04:47:49;11.05;;;3.60;;
69226;SDS011;56334;52.398;7.552;2023-02-19T04:50:15;10.27;;;3.28;;
69226;SDS011;56334;52.398;7.552;2023-02-19T04:52:41;10.75;;;3.40;;
69226;SDS011;56334;52.398;7.552;2023-02-19T04:55:07;12.25;;;3.60;;
69226;SDS011;56334;52.398;7.552;2023-02-19T04:57:33;10.32;;;3.25;;
69226;SDS011;56334;52.398;7.552;2023-02-19T04:59:59;12.27;;;3.92;;
69226;SDS011;56334;52.398;7.552;2023-02-19T05:02:26;11.95;;;3.72;;
69226;SDS011;56334;52.398;7.552;2023-02-19T05:04:52;11.88;;;3.20;;
69226;SDS011;56334;52.398;7.552;2023-02-19T05:07:18;12.20;;;3.60;;
69226;SDS011;56334;52.398;7.552;2023-02-19T05:09:44;9.65;;;3.53;;
69226;SDS011;56334;52.398;7.552;2023-02-19T05:12:10;13.18;;;3.90;;
69226;SDS011;56334;52.398;7.552;2023-02-19T05:14:36;11.50;;;4.75;;
69226;SDS011;56334;52.398;7.552;2023-02-19T05:17:02;13.02;;;4.35;;
69226;SDS011;56334;52.398;7.552;2023-02-19T05:19:28;11.15;;;3.47;;
69226;SDS011;56334;52.398;7.552;2023-02-19T05:21:54;10.25;;;3.72;;
69226;SDS011;56334;52.398;7.552;2023-02-19T05:24:20;12.82;;;4.20;;
69226;SDS011;56334;52.398;7.552;2023-02-19T05:26:48;12.02;;;3.63;;
69226;SDS011;56334;52.398;7.552;2023-02-19T05:29:14;13.80;;;4.53;;
69226;SDS011;56334;52.398;7.552;2023-02-19T05:31:40;11.25;;;3.92;;
69226;SDS011;56334;52.398;7.552;2023-02-19T05:34:06;14.43;;;4.70;;
69226;SDS011;56334;52.398;7.552;2023-02-19T05:36:32;11.32;;;3.53;;
69226;SDS011;56334;52.398;7.552;2023-02-19T05:38:59;16.52;;;5.15;;
69226;SDS011;56334;52.398;7.552;2023-02-19T05:41:26;7.80;;;2.40;;
69226;SDS011;56334;52.398;7.552;2023-02-19T05:43:52;6.70;;;1.85;;
69226;SDS011;56334;52.398;7.552;2023-02-19T05:46:19;8.00;;;2.00;;
69226;SDS011;56334;52.398;7.552;2023-02-19T05:48:46;7.10;;;1.80;;
69226;SDS011;56334;52.398;7.552;2023-02-19T05:51:14;5.72;;;1.45;;
69226;SDS011;56334;52.398;7.552;2023-02-19T05:53:40;5.80;;;1.60;;
69226;SDS011;56334;52.398;7.552;2023-02-19T05:56:40;5.70;;;1.50;;
69226;SDS011;56334;52.398;7.552;2023-02-19T05:59:00;6.85;;;1.73;;
69226;SDS011;56334;52.398;7.552;2023-02-19T06:01:28;6.57;;;1.60;;
69226;SDS011;56334;52.398;7.552;2023-02-19T06:03:54;6.18;;;1.63;;
69226;SDS011;56334;52.398;7.552;2023-02-19T06:06:22;6.45;;;1.58;;
69226;SDS011;56334;52.398;7.552;2023-02-19T06:08:48;6.25;;;1.40;;
69226;SDS011;56334;52.398;7.552;2023-02-19T06:11:15;6.45;;;1.77;;
69226;SDS011;56334;52.398;7.552;2023-02-19T06:13:41;6.38;;;1.67;;
69226;SDS011;56334;52.398;7.552;2023-02-19T06:16:09;7.93;;;2.10;;
69226;SDS011;56334;52.398;7.552;2023-02-19T06:18:35;6.70;;;1.70;;
69226;SDS011;56334;52.398;7.552;2023-02-19T06:21:02;7.10;;;1.85;;
69226;SDS011;56334;52.398;7.552;2023-02-19T06:23:28;7.90;;;2.00;;
69226;SDS011;56334;52.398;7.552;2023-02-19T06:26:03;5.93;;;1.80;;
69226;SDS011;56334;52.398;7.552;2023-02-19T06:28:31;7.80;;;2.22;;
69226;SDS011;56334;52.398;7.552;2023-02-19T06:30:58;6.00;;;1.70;;
69226;SDS011;56334;52.398;7.552;2023-02-19T06:33:25;8.45;;;2.10;;
69226;SDS011;56334;52.398;7.552;2023-02-19T06:35:51;6.70;;;1.80;;
69226;SDS011;56334;52.398;7.552;2023-02-19T06:38:19;6.97;;;1.80;;
69226;SDS011;56334;52.398;7.552;2023-02-19T06:40:46;6.82;;;1.98;;
69226;SDS011;56334;52.398;7.552;2023-02-19T06:43:12;6.95;;;1.90;;
69226;SDS011;56334;52.398;7.552;2023-02-19T06:45:38;6.85;;;1.63;;
69226;SDS011;56334;52.398;7.552;2023-02-19T06:48:06;8.70;;;2.20;;
69226;SDS011;56334;52.398;7.552;2023-02-19T06:50:33;7.63;;;2.30;;
69226;SDS011;56334;52.398;7.552;2023-02-19T06:52:59;7.97;;;2.00;;
69226;SDS011;56334;52.398;7.552;2023-02-19T06:55:25;7.45;;;1.75;;
69226;SDS011;56334;52.398;7.552;2023-02-19T06:57:52;7.07;;;1.70;;
69226;SDS011;56334;52.398;7.552;2023-02-19T07:00:19;7.30;;;2.03;;
69226;SDS011;56334;52.398;7.552;2023-02-19T07:02:45;6.82;;;1.90;;
69226;SDS011;56334;52.398;7.552;2023-02-19T07:05:12;6.18;;;1.60;;
69226;SDS011;56334;52.398;7.552;2023-02-19T07:07:38;6.80;;;1.67;;
69226;SDS011;56334;52.398;7.552;2023-02-19T07:10:04;7.13;;;2.10;;
69226;SDS011;56334;52.398;7.552;2023-02-19T07:12:30;7.10;;;1.80;;
69226;SDS011;56334;52.398;7.552;2023-02-19T07:14:56;6.75;;;1.77;;
69226;SDS011;56334;52.398;7.552;2023-02-19T07:17:22;7.38;;;1.92;;
69226;SDS011;56334;52.398;7.552;2023-02-19T07:19:48;6.50;;;1.60;;
69226;SDS011;56334;52.398;7.552;2023-02-19T07:22:14;6.78;;;1.70;;
69226;SDS011;56334;52.398;7.552;2023-02-19T07:24:40;6.68;;;1.90;;
69226;SDS011;56334;52.398;7.552;2023-02-19T07:27:08;7.05;;;1.75;;
69226;SDS011;56334;52.398;7.552;2023-02-19T07:31:59;6.72;;;1.73;;
69226;SDS011;56334;52.398;7.552;2023-02-19T07:34:27;8.38;;;1.90;;
69226;SDS011;56334;52.398;7.552;2023-02-19T07:36:54;8.27;;;2.00;;
69226;SDS011;56334;52.398;7.552;2023-02-19T07:39:21;7.25;;;1.75;;
69226;SDS011;56334;52.398;7.552;2023-02-19T07:44:22;12.32;;;4.05;;
69226;SDS011;56334;52.398;7.552;2023-02-19T07:46:48;15.63;;;5.43;;
69226;SDS011;56334;52.398;7.552;2023-02-19T07:49:16;17.58;;;7.22;;
69226;SDS011;56334;52.398;7.552;2023-02-19T07:51:43;19.90;;;7.45;;
69226;SDS011;56334;52.398;7.552;2023-02-19T07:54:09;12.32;;;4.80;;
69226;SDS011;56334;52.398;7.552;2023-02-19T07:56:35;10.25;;;3.22;;
69226;SDS011;56334;52.398;7.552;2023-02-19T07:59:01;11.88;;;3.85;;
69226;SDS011;56334;52.398;7.552;2023-02-19T08:01:28;19.48;;;7.10;;
69226;SDS011;56334;52.398;7.552;2023-02-19T08:04:13;14.15;;;5.70;;
69226;SDS011;56334;52.398;7.552;2023-02-19T08:06:41;14.35;;;5.07;;
69226;SDS011;56334;52.398;7.552;2023-02-19T08:09:07;12.38;;;4.00;;
69226;SDS011;56334;52.398;7.552;2023-02-19T08:11:33;10.90;;;4.07;;
69226;SDS011;56334;52.398;7.552;2023-02-19T08:14:22;8.57;;;2.65;;
69226;SDS011;56334;52.398;7.552;2023-02-19T08:16:52;8.48;;;2.55;;
69226;SDS011;56334;52.398;7.552;2023-02-19T08:19:18;9.45;;;2.17;;
69226;SDS011;56334;52.398;7.552;2023-02-19T08:21:44;8.00;;;2.10;;
69226;SDS011;56334;52.398;7.552;2023-02-19T08:24:11;9.25;;;2.35;;
69226;SDS011;56334;52.398;7.552;2023-02-19T08:26:36;8.02;;;2.47;;
69226;SDS011;56334;52.398;7.552;2023-02-19T08:29:03;9.10;;;2.80;;
69226;SDS011;56334;52.398;7.552;2023-02-19T08:33:56;8.35;;;2.45;;
69226;SDS011;56334;52.398;7.552;2023-02-19T08:36:22;9.60;;;3.10;;
69226;SDS011;56334;52.398;7.552;2023-02-19T08:38:49;11.48;;;3.97;;
69226;SDS011;56334;52.398;7.552;2023-02-19T08:41:15;8.82;;;2.90;;
69226;SDS011;56334;52.398;7.552;2023-02-19T08:43:41;12.73;;;2.97;;
69226;SDS011;56334;52.398;7.552;2023-02-19T08:46:08;9.77;;;2.80;;
69226;SDS011;56334;52.398;7.552;2023-02-19T08:48:34;10.43;;;3.80;;
69226;SDS011;56334;52.398;7.552;2023-02-19T08:51:02;10.50;;;4.00;;
69226;SDS011;56334;52.398;7.552;2023-02-19T08:53:30;10.60;;;3.92;;
69226;SDS011;56334;52.398;7.552;2023-02-19T08:55:57;11.07;;;4.38;;
69226;SDS011;56334;52.398;7.552;2023-02-19T09:00:50;16.92;;;8.27;;
69226;SDS011;56334;52.398;7.552;2023-02-19T09:03:16;14.30;;;6.63;;
69226;SDS011;56334;52.398;7.552;2023-02-19T09:05:42;10.25;;;3.55;;
69226;SDS011;56334;52.398;7.552;2023-02-19T09:08:11;10.00;;;3.30;;
69226;SDS011;56334;52.398;7.552;2023-02-19T09:10:37;10.52;;;3.78;;
69226;SDS011;56334;52.398;7.552;2023-02-19T09:13:03;11.85;;;3.47;;
69226;SDS011;56334;52.398;7.552;2023-02-19T09:15:29;11.48;;;3.45;;
69226;SDS011;56334;52.398;7.552;2023-02-19T09:17:58;10.90;;;3.80;;
69226;SDS011;56334;52.398;7.552;2023-02-19T09:25:37;11.02;;;4.05;;
69226;SDS011;56334;52.398;7.552;2023-02-19T09:28:03;11.80;;;4.10;;
69226;SDS011;56334;52.398;7.552;2023-02-19T09:30:29;12.27;;;4.10;;
69226;SDS011;56334;52.398;7.552;2023-02-19T09:35:58;11.55;;;4.03;;
69226;SDS011;56334;52.398;7.552;2023-02-19T09:41:21;12.20;;;4.43;;
69226;SDS011;56334;52.398;7.552;2023-02-19T09:43:48;12.82;;;3.72;;
69226;SDS011;56334;52.398;7.552;2023-02-19T09:51:12;8.98;;;3.03;;
69226;SDS011;56334;52.398;7.552;2023-02-19T09:53:43;9.77;;;3.05;;
69226;SDS011;56334;52.398;7.552;2023-02-19T09:56:10;9.60;;;3.20;;
69226;SDS011;56334;52.398;7.552;2023-02-19T09:58:55;8.02;;;3.00;;
69226;SDS011;56334;52.398;7.552;2023-02-19T10:04:27;9.15;;;2.70;;
69226;SDS011;56334;52.398;7.552;2023-02-19T10:06:53;9.75;;;3.35;;
69226;SDS011;56334;52.398;7.552;2023-02-19T10:09:25;8.07;;;2.78;;
69226;SDS011;56334;52.398;7.552;2023-02-19T10:11:53;8.13;;;2.50;;
69226;SDS011;56334;52.398;7.552;2023-02-19T10:16:49;7.93;;;2.42;;
69226;SDS011;56334;52.398;7.552;2023-02-19T10:19:16;9.63;;;2.80;;
69226;SDS011;56334;52.398;7.552;2023-02-19T10:21:44;8.50;;;2.47;;
69226;SDS011;56334;52.398;7.552;2023-02-19T10:24:13;8.75;;;2.40;;
69226;SDS011;56334;52.398;7.552;2023-02-19T10:26:41;7.35;;;2.30;;
69226;SDS011;56334;52.398;7.552;2023-02-19T10:29:08;22.33;;;13.23;;
69226;SDS011;56334;52.398;7.552;2023-02-19T10:31:46;8.18;;;4.03;;
69226;SDS011;56334;52.398;7.552;2023-02-19T10:34:16;7.05;;;1.80;;
69226;SDS011;56334;52.398;7.552;2023-02-19T10:36:42;6.22;;;1.70;;
69226;SDS011;56334;52.398;7.552;2023-02-19T10:44:40;6.85;;;2.00;;
69226;SDS011;56334;52.398;7.552;2023-02-19T10:47:17;5.32;;;1.38;;
69226;SDS011;56334;52.398;7.552;2023-02-19T10:52:35;7.20;;;2.50;;
69226;SDS011;56334;52.398;7.552;2023-02-19T10:58:15;6.20;;;1.75;;
69226;SDS011;56334;52.398;7.552;2023-02-19T11:06:55;5.85;;;1.73;;
69226;SDS011;56334;52.398;7.552;2023-02-19T11:09:28;6.65;;;1.95;;
69226;SDS011;56334;52.398;7.552;2023-02-19T11:14:22;6.88;;;1.90;;
69226;SDS011;56334;52.398;7.552;2023-02-19T11:16:50;7.30;;;2.17;;
69226;SDS011;56334;52.398;7.552;2023-02-19T11:19:39;7.00;;;2.63;;
69226;SDS011;56334;52.398;7.552;2023-02-19T11:24:50;6.95;;;1.80;;
69226;SDS011;56334;52.398;7.552;2023-02-19T11:27:18;7.40;;;1.35;;
69226;SDS011;56334;52.398;7.552;2023-02-19T11:29:44;6.78;;;1.70;;
69226;SDS011;56334;52.398;7.552;2023-02-19T11:32:43;6.97;;;2.28;;
69226;SDS011;56334;52.398;7.552;2023-02-19T11:35:19;6.50;;;2.00;;
69226;SDS011;56334;52.398;7.552;2023-02-19T11:37:56;6.75;;;1.90;;
69226;SDS011;56334;52.398;7.552;2023-02-19T11:40:28;6.72;;;1.60;;
69226;SDS011;56334;52.398;7.552;2023-02-19T11:43:01;5.85;;;1.40;;
69226;SDS011;56334;52.398;7.552;2023-02-19T11:45:37;7.28;;;1.90;;
69226;SDS011;56334;52.398;7.552;2023-02-19T11:48:14;6.20;;;1.70;;
69226;SDS011;56334;52.398;7.552;2023-02-19T11:53:25;5.88;;;1.70;;
69226;SDS011;56334;52.398;7.552;2023-02-19T12:01:06;6.68;;;1.73;;
69226;SDS011;56334;52.398;7.552;2023-02-19T12:03:47;6.97;;;1.88;;
69226;SDS011;56334;52.398;7.552;2023-02-19T12:24:41;6.50;;;1.83;;
69226;SDS011;56334;52.398;7.552;2023-02-19T12:27:34;8.07;;;2.03;;
69226;SDS011;56334;52.398;7.552;2023-02-19T12:33:09;7.28;;;1.83;;
69226;SDS011;56334;52.398;7.552;2023-02-19T12:43:39;7.90;;;1.80;;
69226;SDS011;56334;52.398;7.552;2023-02-19T12:46:07;7.45;;;2.10;;
69226;SDS011;56334;52.398;7.552;2023-02-19T12:51:09;7.32;;;1.90;;
69226;SDS011;56334;52.398;7.552;2023-02-19T13:07:08;7.65;;;1.70;;
69226;SDS011;56334;52.398;7.552;2023-02-19T13:09:39;9.50;;;2.92;;
69226;SDS011;56334;52.398;7.552;2023-02-19T13:14:48;8.48;;;1.90;;
69226;SDS011;56334;52.398;7.552;2023-02-19T13:37:09;8.20;;;2.22;;
69226;SDS011;56334;52.398;7.552;2023-02-19T13:42:33;7.03;;;2.08;;
69226;SDS011;56334;52.398;7.552;2023-02-19T13:50:22;6.93;;;1.70;;
69226;SDS011;56334;52.398;7.552;2023-02-19T14:01:04;7.07;;;1.95;;
69226;SDS011;56334;52.398;7.552;2023-02-19T14:06:03;6.65;;;1.70;;
69226;SDS011;56334;52.398;7.552;2023-02-19T14:14:28;6.35;;;1.77;;
69226;SDS011;56334;52.398;7.552;2023-02-19T14:27:25;6.60;;;1.65;;
69226;SDS011;56334;52.398;7.552;2023-02-19T14:29:51;7.22;;;2.35;;
69226;SDS011;56334;52.398;7.552;2023-02-19T14:32:18;9.13;;;2.03;;
69226;SDS011;56334;52.398;7.552;2023-02-19T14:34:44;6.80;;;1.75;;
69226;SDS011;56334;52.398;7.552;2023-02-19T14:39:38;6.18;;;1.90;;
69226;SDS011;56334;52.398;7.552;2023-02-19T14:42:05;6.07;;;1.70;;
69226;SDS011;56334;52.398;7.552;2023-02-19T14:45:14;6.70;;;1.83;;
69226;SDS011;56334;52.398;7.552;2023-02-19T14:47:22;5.82;;;1.52;;
69226;SDS011;56334;52.398;7.552;2023-02-19T14:52:25;5.82;;;1.50;;
69226;SDS011;56334;52.398;7.552;2023-02-19T14:54:53;5.40;;;1.60;;
69226;SDS011;56334;52.398;7.552;2023-02-19T14:57:21;6.70;;;1.70;;
69226;SDS011;56334;52.398;7.552;2023-02-19T14:59:59;6.15;;;1.88;;
69226;SDS011;56334;52.398;7.552;2023-02-19T15:04:57;6.85;;;2.20;;
69226;SDS011;56334;52.398;7.552;2023-02-19T15:07:31;6.78;;;2.20;;
69226;SDS011;56334;52.398;7.552;2023-02-19T15:09:59;7.47;;;1.85;;
69226;SDS011;56334;52.398;7.552;2023-02-19T15:12:29;7.32;;;2.15;;
69226;SDS011;56334;52.398;7.552;2023-02-19T15:14:58;5.95;;;1.80;;
69226;SDS011;56334;52.398;7.552;2023-02-19T15:17:26;5.97;;;1.75;;
69226;SDS011;56334;52.398;7.552;2023-02-19T15:22:20;6.57;;;1.80;;
69226;SDS011;56334;52.398;7.552;2023-02-19T15:24:47;5.80;;;1.70;;
69226;SDS011;56334;52.398;7.552;2023-02-19T15:27:20;6.75;;;1.98;;
69226;SDS011;56334;52.398;7.552;2023-02-19T15:32:17;7.90;;;2.00;;
69226;SDS011;56334;52.398;7.552;2023-02-19T15:34:51;6.65;;;1.90;;
69226;SDS011;56334;52.398;7.552;2023-02-19T15:37:19;8.93;;;2.30;;
69226;SDS011;56334;52.398;7.552;2023-02-19T15:39:48;9.15;;;2.67;;
69226;SDS011;56334;52.398;7.552;2023-02-19T15:42:17;9.18;;;3.20;;
69226;SDS011;56334;52.398;7.552;2023-02-19T15:44:46;8.52;;;2.72;;
69226;SDS011;56334;52.398;7.552;2023-02-19T15:50:21;7.45;;;2.35;;
69226;SDS011;56334;52.398;7.552;2023-02-19T16:01:13;10.38;;;3.17;;
69226;SDS011;56334;52.398;7.552;2023-02-19T16:03:41;9.93;;;3.20;;
69226;SDS011;56334;52.398;7.552;2023-02-19T16:06:12;8.25;;;3.33;;
69226;SDS011;56334;52.398;7.552;2023-02-19T16:11:36;8.63;;;3.40;;
69226;SDS011;56334;52.398;7.552;2023-02-19T16:17:22;9.02;;;3.67;;
69226;SDS011;56334;52.398;7.552;2023-02-19T16:22:11;8.48;;;3.15;;
69226;SDS011;56334;52.398;7.552;2023-02-19T16:24:41;8.90;;;3.45;;
69226;SDS011;56334;52.398;7.552;2023-02-19T16:27:09;9.35;;;3.22;;
69226;SDS011;56334;52.398;7.552;2023-02-19T16:29:36;9.40;;;3.10;;
69226;SDS011;56334;52.398;7.552;2023-02-19T16:32:04;9.38;;;2.53;;
69226;SDS011;56334;52.398;7.552;2023-02-19T16:37:38;9.20;;;2.65;;
69226;SDS011;56334;52.398;7.552;2023-02-19T16:42:32;9.10;;;2.30;;
69226;SDS011;56334;52.398;7.552;2023-02-19T16:44:58;8.57;;;2.35;;
69226;SDS011;56334;52.398;7.552;2023-02-19T16:47:30;7.95;;;2.47;;
69226;SDS011;56334;52.398;7.552;2023-02-19T16:49:58;8.13;;;2.28;;
69226;SDS011;56334;52.398;7.552;2023-02-19T16:52:24;7.30;;;2.38;;
69226;SDS011;56334;52.398;7.552;2023-02-19T16:54:50;8.15;;;2.33;;
69226;SDS011;56334;52.398;7.552;2023-02-19T16:57:17;8.13;;;2.25;;
69226;SDS011;56334;52.398;7.552;2023-02-19T16:59:44;8.15;;;2.03;;
69226;SDS011;56334;52.398;7.552;2023-02-19T17:02:13;7.05;;;2.28;;
69226;SDS011;56334;52.398;7.552;2023-02-19T17:04:40;8.25;;;2.22;;
69226;SDS011;56334;52.398;7.552;2023-02-19T17:07:08;6.80;;;2.10;;
69226;SDS011;56334;52.398;7.552;2023-02-19T17:09:36;6.95;;;2.10;;
69226;SDS011;56334;52.398;7.552;2023-02-19T17:12:02;7.15;;;2.05;;
69226;SDS011;56334;52.398;7.552;2023-02-19T17:14:28;7.45;;;1.95;;
69226;SDS011;56334;52.398;7.552;2023-02-19T17:16:54;7.32;;;1.90;;
69226;SDS011;56334;52.398;7.552;2023-02-19T17:19:20;6.60;;;2.00;;
69226;SDS011;56334;52.398;7.552;2023-02-19T17:21:46;9.13;;;2.20;;
69226;SDS011;56334;52.398;7.552;2023-02-19T17:24:13;7.65;;;2.00;;
69226;SDS011;56334;52.398;7.552;2023-02-19T17:26:39;7.32;;;1.90;;
69226;SDS011;56334;52.398;7.552;2023-02-19T17:29:05;8.52;;;2.22;;
69226;SDS011;56334;52.398;7.552;2023-02-19T17:31:32;7.53;;;2.20;;
69226;SDS011;56334;52.398;7.552;2023-02-19T17:33:58;7.03;;;2.10;;
69226;SDS011;56334;52.398;7.552;2023-02-19T17:36:26;7.38;;;1.92;;
69226;SDS011;56334;52.398;7.552;2023-02-19T17:41:29;7.40;;;1.77;;
69226;SDS011;56334;52.398;7.552;2023-02-19T17:43:55;7.50;;;2.20;;
69226;SDS011;56334;52.398;7.552;2023-02-19T17:46:22;7.28;;;2.10;;
69226;SDS011;56334;52.398;7.552;2023-02-19T17:48:49;9.27;;;2.10;;
69226;SDS011;56334;52.398;7.552;2023-02-19T17:51:15;7.82;;;1.98;;
69226;SDS011;56334;52.398;7.552;2023-02-19T17:53:42;7.10;;;2.30;;
69226;SDS011;56334;52.398;7.552;2023-02-19T17:56:10;8.27;;;2.20;;
69226;SDS011;56334;52.398;7.552;2023-02-19T17:58:40;7.47;;;2.22;;
69226;SDS011;56334;52.398;7.552;2023-02-19T18:01:06;7.80;;;2.30;;
69226;SDS011;56334;52.398;7.552;2023-02-19T18:03:32;7.80;;;2.47;;
69226;SDS011;56334;52.398;7.552;2023-02-19T18:05:58;8.15;;;2.80;;
69226;SDS011;56334;52.398;7.552;2023-02-19T18:08:24;8.85;;;2.78;;
69226;SDS011;56334;52.398;7.552;2023-02-19T18:10:50;8.93;;;2.90;;
69226;SDS011;56334;52.398;7.552;2023-02-19T18:13:16;7.68;;;2.40;;
69226;SDS011;56334;52.398;7.552;2023-02-19T18:15:42;7.97;;;2.85;;
69226;SDS011;56334;52.398;7.552;2023-02-19T18:18:08;8.00;;;2.72;;
69226;SDS011;56334;52.398;7.552;2023-02-19T18:20:34;9.45;;;3.10;;
69226;SDS011;56334;52.398;7.552;2023-02-19T18:26:10;7.97;;;2.97;;
69226;SDS011;56334;52.398;7.552;2023-02-19T18:28:38;8.43;;;2.90;;
69226;SDS011;56334;52.398;7.552;2023-02-19T18:31:04;7.63;;;2.58;;
69226;SDS011;56334;52.398;7.552;2023-02-19T18:33:35;9.73;;;3.10;;
69226;SDS011;56334;52.398;7.552;2023-02-19T18:46:50;9.55;;;3.53;;
69226;SDS011;56334;52.398;7.552;2023-02-19T18:49:16;10.20;;;3.95;;
69226;SDS011;56334;52.398;7.552;2023-02-19T18:51:44;9.40;;;3.40;;
69226;SDS011;56334;52.398;7.552;2023-02-19T18:54:10;8.48;;;2.78;;
69226;SDS011;56334;52.398;7.552;2023-02-19T18:56:43;8.40;;;2.65;;
69226;SDS011;56334;52.398;7.552;2023-02-19T18:59:10;8.02;;;3.25;;
69226;SDS011;56334;52.398;7.552;2023-02-19T19:01:36;8.23;;;3.00;;
69226;SDS011;56334;52.398;7.552;2023-02-19T19:04:02;11.07;;;3.67;;